sensor_id;sensor_type;location;lat;lon;timestamp;P1;durP1;ratioP1;P2;durP2;ratioP2
21890;SDS011;11110;52.386;16.940;2023-06-01T00:00:02;9.50;;;4.38;;
21890;SDS011;11110;52.386;16.940;2023-06-01T00:02:59;9.70;;;4.45;;
21890;SDS011;11110;52.386;16.940;2023-06-01T00:05:27;9.60;;;4.50;;
21890;SDS011;11110;52.386;16.940;2023-06-01T00:07:56;8.45;;;4.03;;
21890;SDS011;11110;52.386;16.940;2023-06-01T00:10:24;11.55;;;4.65;;
21890;SDS011;11110;52.386;16.940;2023-06-01T00:12:53;7.97;;;4.28;;
21890;SDS011;11110;52.386;16.940;2023-06-01T00:15:21;11.05;;;5.35;;
21890;SDS011;11110;52.386;16.940;2023-06-01T00:17:50;12.07;;;5.07;;
21890;SDS011;11110;52.386;16.940;2023-06-01T00:20:20;10.85;;;4.80;;
21890;SDS011;11110;52.386;16.940;2023-06-01T00:22:50;9.07;;;4.30;;
21890;SDS011;11110;52.386;16.940;2023-06-01T00:25:21;14.27;;;4.97;;
21890;SDS011;11110;52.386;16.940;2023-06-01T00:27:50;8.25;;;4.22;;
21890;SDS011;11110;52.386;16.940;2023-06-01T00:30:18;10.48;;;4.40;;
21890;SDS011;11110;52.386;16.940;2023-06-01T00:32:47;10.75;;;5.22;;
21890;SDS011;11110;52.386;16.940;2023-06-01T00:35:15;7.65;;;4.50;;
21890;SDS011;11110;52.386;16.940;2023-06-01T00:37:45;8.93;;;4.28;;
21890;SDS011;11110;52.386;16.940;2023-06-01T00:40:14;10.00;;;4.20;;
21890;SDS011;11110;52.386;16.940;2023-06-01T00:42:43;8.80;;;4.68;;
21890;SDS011;11110;52.386;16.940;2023-06-01T00:45:11;11.80;;;4.38;;
21890;SDS011;11110;52.386;16.940;2023-06-01T00:47:41;9.48;;;4.47;;
21890;SDS011;11110;52.386;16.940;2023-06-01T00:50:11;13.60;;;4.93;;
21890;SDS011;11110;52.386;16.940;2023-06-01T00:52:40;8.57;;;4.97;;
21890;SDS011;11110;52.386;16.940;2023-06-01T00:55:11;11.25;;;4.50;;
21890;SDS011;11110;52.386;16.940;2023-06-01T00:57:41;7.57;;;4.70;;
21890;SDS011;11110;52.386;16.940;2023-06-01T01:00:10;8.63;;;4.70;;
21890;SDS011;11110;52.386;16.940;2023-06-01T01:02:40;6.72;;;4.68;;
21890;SDS011;11110;52.386;16.940;2023-06-01T01:05:11;9.98;;;5.03;;
21890;SDS011;11110;52.386;16.940;2023-06-01T01:07:47;15.48;;;5.18;;
21890;SDS011;11110;52.386;16.940;2023-06-01T01:10:27;12.45;;;4.80;;
21890;SDS011;11110;52.386;16.940;2023-06-01T01:13:03;12.00;;;4.90;;
21890;SDS011;11110;52.386;16.940;2023-06-01T01:15:39;12.35;;;5.32;;
21890;SDS011;11110;52.386;16.940;2023-06-01T01:18:15;8.38;;;5.50;;
21890;SDS011;11110;52.386;16.940;2023-06-01T01:20:48;8.95;;;4.70;;
21890;SDS011;11110;52.386;16.940;2023-06-01T01:23:32;7.72;;;4.88;;
21890;SDS011;11110;52.386;16.940;2023-06-01T01:26:21;11.20;;;5.15;;
21890;SDS011;11110;52.386;16.940;2023-06-01T01:28:58;7.32;;;5.38;;
21890;SDS011;11110;52.386;16.940;2023-06-01T01:31:30;9.63;;;5.63;;
21890;SDS011;11110;52.386;16.940;2023-06-01T01:34:00;9.00;;;4.93;;
21890;SDS011;11110;52.386;16.940;2023-06-01T01:36:30;11.57;;;5.28;;
21890;SDS011;11110;52.386;16.940;2023-06-01T01:38:59;9.20;;;5.22;;
21890;SDS011;11110;52.386;16.940;2023-06-01T01:41:28;7.68;;;4.65;;
21890;SDS011;11110;52.386;16.940;2023-06-01T01:43:58;14.85;;;5.72;;
21890;SDS011;11110;52.386;16.940;2023-06-01T01:46:27;6.35;;;4.45;;
21890;SDS011;11110;52.386;16.940;2023-06-01T01:49:00;9.30;;;4.97;;
21890;SDS011;11110;52.386;16.940;2023-06-01T01:51:36;12.15;;;5.65;;
21890;SDS011;11110;52.386;16.940;2023-06-01T01:54:12;8.45;;;4.78;;
21890;SDS011;11110;52.386;16.940;2023-06-01T01:56:41;7.22;;;4.18;;
21890;SDS011;11110;52.386;16.940;2023-06-01T01:59:12;7.25;;;5.00;;
21890;SDS011;11110;52.386;16.940;2023-06-01T02:01:42;13.82;;;6.55;;
21890;SDS011;11110;52.386;16.940;2023-06-01T02:04:12;8.45;;;5.07;;
21890;SDS011;11110;52.386;16.940;2023-06-01T02:06:41;7.00;;;4.63;;
21890;SDS011;11110;52.386;16.940;2023-06-01T02:09:09;8.93;;;4.85;;
21890;SDS011;11110;52.386;16.940;2023-06-01T02:11:38;6.72;;;4.72;;
21890;SDS011;11110;52.386;16.940;2023-06-01T02:14:07;6.50;;;5.00;;
21890;SDS011;11110;52.386;16.940;2023-06-01T02:16:38;6.22;;;4.78;;
21890;SDS011;11110;52.386;16.940;2023-06-01T02:19:07;9.05;;;5.10;;
21890;SDS011;11110;52.386;16.940;2023-06-01T02:21:37;7.43;;;5.00;;
21890;SDS011;11110;52.386;16.940;2023-06-01T02:24:06;8.98;;;5.68;;
21890;SDS011;11110;52.386;16.940;2023-06-01T02:26:36;9.70;;;5.78;;
21890;SDS011;11110;52.386;16.940;2023-06-01T02:29:05;10.73;;;5.63;;
21890;SDS011;11110;52.386;16.940;2023-06-01T02:31:34;12.63;;;6.60;;
21890;SDS011;11110;52.386;16.940;2023-06-01T02:34:05;8.95;;;5.40;;
21890;SDS011;11110;52.386;16.940;2023-06-01T02:36:33;8.63;;;6.00;;
21890;SDS011;11110;52.386;16.940;2023-06-01T02:39:02;10.75;;;5.25;;
21890;SDS011;11110;52.386;16.940;2023-06-01T02:41:32;9.52;;;6.28;;
21890;SDS011;11110;52.386;16.940;2023-06-01T02:44:00;8.13;;;5.10;;
21890;SDS011;11110;52.386;16.940;2023-06-01T02:46:30;13.57;;;5.50;;
21890;SDS011;11110;52.386;16.940;2023-06-01T02:48:58;8.88;;;5.15;;
21890;SDS011;11110;52.386;16.940;2023-06-01T02:51:28;8.15;;;5.00;;
21890;SDS011;11110;52.386;16.940;2023-06-01T02:54:06;9.52;;;4.93;;
21890;SDS011;11110;52.386;16.940;2023-06-01T02:56:34;8.07;;;5.38;;
21890;SDS011;11110;52.386;16.940;2023-06-01T02:59:12;7.32;;;4.97;;
21890;SDS011;11110;52.386;16.940;2023-06-01T03:01:46;11.35;;;5.45;;
21890;SDS011;11110;52.386;16.940;2023-06-01T03:04:15;10.00;;;5.25;;
21890;SDS011;11110;52.386;16.940;2023-06-01T03:06:46;10.32;;;5.15;;
21890;SDS011;11110;52.386;16.940;2023-06-01T03:09:45;9.18;;;5.32;;
21890;SDS011;11110;52.386;16.940;2023-06-01T03:12:49;10.20;;;5.50;;
21890;SDS011;11110;52.386;16.940;2023-06-01T03:15:18;9.35;;;5.65;;
21890;SDS011;11110;52.386;16.940;2023-06-01T03:17:47;9.38;;;5.80;;
21890;SDS011;11110;52.386;16.940;2023-06-01T03:20:16;12.52;;;5.88;;
21890;SDS011;11110;52.386;16.940;2023-06-01T03:22:46;12.60;;;5.82;;
21890;SDS011;11110;52.386;16.940;2023-06-01T03:25:16;9.88;;;5.65;;
21890;SDS011;11110;52.386;16.940;2023-06-01T03:27:44;8.40;;;5.70;;
21890;SDS011;11110;52.386;16.940;2023-06-01T03:30:13;9.02;;;5.57;;
21890;SDS011;11110;52.386;16.940;2023-06-01T03:32:42;8.25;;;5.15;;
21890;SDS011;11110;52.386;16.940;2023-06-01T03:35:12;8.77;;;5.35;;
21890;SDS011;11110;52.386;16.940;2023-06-01T03:37:44;10.73;;;5.22;;
21890;SDS011;11110;52.386;16.940;2023-06-01T03:40:18;14.25;;;5.95;;
21890;SDS011;11110;52.386;16.940;2023-06-01T03:42:47;10.27;;;5.60;;
21890;SDS011;11110;52.386;16.940;2023-06-01T03:45:16;9.57;;;5.50;;
21890;SDS011;11110;52.386;16.940;2023-06-01T03:47:46;9.13;;;5.13;;
21890;SDS011;11110;52.386;16.940;2023-06-01T03:50:14;8.25;;;4.90;;
21890;SDS011;11110;52.386;16.940;2023-06-01T03:52:44;10.77;;;5.03;;
21890;SDS011;11110;52.386;16.940;2023-06-01T03:55:14;7.97;;;5.25;;
21890;SDS011;11110;52.386;16.940;2023-06-01T03:58:04;8.73;;;5.15;;
21890;SDS011;11110;52.386;16.940;2023-06-01T04:00:35;10.82;;;5.10;;
21890;SDS011;11110;52.386;16.940;2023-06-01T04:03:03;10.10;;;5.65;;
21890;SDS011;11110;52.386;16.940;2023-06-01T04:05:35;7.50;;;5.07;;
21890;SDS011;11110;52.386;16.940;2023-06-01T04:08:04;11.15;;;5.18;;
21890;SDS011;11110;52.386;16.940;2023-06-01T04:10:34;10.82;;;5.38;;
21890;SDS011;11110;52.386;16.940;2023-06-01T04:13:03;10.48;;;4.88;;
21890;SDS011;11110;52.386;16.940;2023-06-01T04:15:32;11.70;;;4.68;;
21890;SDS011;11110;52.386;16.940;2023-06-01T04:18:01;11.60;;;5.40;;
21890;SDS011;11110;52.386;16.940;2023-06-01T04:20:47;12.10;;;5.30;;
21890;SDS011;11110;52.386;16.940;2023-06-01T04:23:15;19.45;;;5.60;;
21890;SDS011;11110;52.386;16.940;2023-06-01T04:25:45;8.48;;;4.40;;
21890;SDS011;11110;52.386;16.940;2023-06-01T04:28:17;9.70;;;4.55;;
21890;SDS011;11110;52.386;16.940;2023-06-01T04:30:47;7.85;;;4.40;;
21890;SDS011;11110;52.386;16.940;2023-06-01T04:33:18;9.55;;;3.92;;
21890;SDS011;11110;52.386;16.940;2023-06-01T04:35:49;6.68;;;4.75;;
21890;SDS011;11110;52.386;16.940;2023-06-01T04:38:20;7.53;;;4.45;;
21890;SDS011;11110;52.386;16.940;2023-06-01T04:40:53;8.57;;;3.90;;
21890;SDS011;11110;52.386;16.940;2023-06-01T04:43:22;7.35;;;4.30;;
21890;SDS011;11110;52.386;16.940;2023-06-01T04:45:51;10.07;;;3.78;;
21890;SDS011;11110;52.386;16.940;2023-06-01T04:48:19;10.57;;;4.10;;
21890;SDS011;11110;52.386;16.940;2023-06-01T04:50:54;7.43;;;3.95;;
21890;SDS011;11110;52.386;16.940;2023-06-01T04:53:24;9.98;;;4.03;;
21890;SDS011;11110;52.386;16.940;2023-06-01T04:55:54;8.38;;;4.13;;
21890;SDS011;11110;52.386;16.940;2023-06-01T04:58:25;6.85;;;3.90;;
21890;SDS011;11110;52.386;16.940;2023-06-01T05:00:53;7.78;;;5.03;;
21890;SDS011;11110;52.386;16.940;2023-06-01T05:03:22;7.07;;;3.88;;
21890;SDS011;11110;52.386;16.940;2023-06-01T05:05:51;10.85;;;4.00;;
21890;SDS011;11110;52.386;16.940;2023-06-01T05:08:19;6.20;;;3.97;;
21890;SDS011;11110;52.386;16.940;2023-06-01T05:10:48;10.15;;;4.25;;
21890;SDS011;11110;52.386;16.940;2023-06-01T05:13:18;8.30;;;4.22;;
21890;SDS011;11110;52.386;16.940;2023-06-01T05:15:47;8.48;;;3.67;;
21890;SDS011;11110;52.386;16.940;2023-06-01T05:18:16;11.45;;;3.67;;
21890;SDS011;11110;52.386;16.940;2023-06-01T05:20:44;9.55;;;3.97;;
21890;SDS011;11110;52.386;16.940;2023-06-01T05:23:13;6.55;;;3.90;;
21890;SDS011;11110;52.386;16.940;2023-06-01T05:25:45;5.60;;;2.90;;
21890;SDS011;11110;52.386;16.940;2023-06-01T05:28:14;6.38;;;2.50;;
21890;SDS011;11110;52.386;16.940;2023-06-01T05:30:44;4.38;;;2.83;;
21890;SDS011;11110;52.386;16.940;2023-06-01T05:33:13;4.95;;;2.70;;
21890;SDS011;11110;52.386;16.940;2023-06-01T05:35:41;3.28;;;2.70;;
21890;SDS011;11110;52.386;16.940;2023-06-01T05:38:15;4.68;;;2.95;;
21890;SDS011;11110;52.386;16.940;2023-06-01T05:40:43;11.23;;;3.65;;
21890;SDS011;11110;52.386;16.940;2023-06-01T05:43:12;6.97;;;3.20;;
21890;SDS011;11110;52.386;16.940;2023-06-01T05:45:41;6.78;;;3.30;;
21890;SDS011;11110;52.386;16.940;2023-06-01T05:48:11;8.27;;;2.85;;
21890;SDS011;11110;52.386;16.940;2023-06-01T05:50:46;4.25;;;2.97;;
21890;SDS011;11110;52.386;16.940;2023-06-01T05:53:15;5.85;;;3.35;;
21890;SDS011;11110;52.386;16.940;2023-06-01T05:55:44;7.10;;;2.78;;
21890;SDS011;11110;52.386;16.940;2023-06-01T05:58:12;9.05;;;3.10;;
21890;SDS011;11110;52.386;16.940;2023-06-01T06:00:41;8.40;;;3.33;;
21890;SDS011;11110;52.386;16.940;2023-06-01T06:03:09;5.97;;;3.20;;
21890;SDS011;11110;52.386;16.940;2023-06-01T06:05:40;8.00;;;2.90;;
21890;SDS011;11110;52.386;16.940;2023-06-01T06:08:08;4.95;;;2.65;;
21890;SDS011;11110;52.386;16.940;2023-06-01T06:10:37;7.30;;;2.70;;
21890;SDS011;11110;52.386;16.940;2023-06-01T06:13:06;9.43;;;3.13;;
21890;SDS011;11110;52.386;16.940;2023-06-01T06:15:35;7.05;;;2.78;;
21890;SDS011;11110;52.386;16.940;2023-06-01T06:18:03;4.43;;;2.55;;
21890;SDS011;11110;52.386;16.940;2023-06-01T06:20:34;4.40;;;2.63;;
21890;SDS011;11110;52.386;16.940;2023-06-01T06:23:02;6.35;;;2.50;;
21890;SDS011;11110;52.386;16.940;2023-06-01T06:25:31;7.00;;;2.88;;
21890;SDS011;11110;52.386;16.940;2023-06-01T06:27:59;6.38;;;2.70;;
21890;SDS011;11110;52.386;16.940;2023-06-01T06:30:28;4.85;;;2.78;;
21890;SDS011;11110;52.386;16.940;2023-06-01T06:32:56;5.85;;;3.05;;
21890;SDS011;11110;52.386;16.940;2023-06-01T06:35:25;9.13;;;2.90;;
21890;SDS011;11110;52.386;16.940;2023-06-01T06:37:55;8.38;;;2.95;;
21890;SDS011;11110;52.386;16.940;2023-06-01T06:40:24;7.22;;;2.88;;
21890;SDS011;11110;52.386;16.940;2023-06-01T06:42:52;8.40;;;3.30;;
21890;SDS011;11110;52.386;16.940;2023-06-01T06:45:21;7.60;;;3.10;;
21890;SDS011;11110;52.386;16.940;2023-06-01T06:47:49;4.60;;;2.85;;
21890;SDS011;11110;52.386;16.940;2023-06-01T06:50:18;11.02;;;3.15;;
21890;SDS011;11110;52.386;16.940;2023-06-01T06:52:46;10.75;;;3.33;;
21890;SDS011;11110;52.386;16.940;2023-06-01T06:55:16;7.53;;;3.05;;
21890;SDS011;11110;52.386;16.940;2023-06-01T06:57:44;9.30;;;3.03;;
21890;SDS011;11110;52.386;16.940;2023-06-01T07:00:13;7.35;;;3.05;;
21890;SDS011;11110;52.386;16.940;2023-06-01T07:02:43;4.95;;;2.75;;
21890;SDS011;11110;52.386;16.940;2023-06-01T07:05:12;5.78;;;2.63;;
21890;SDS011;11110;52.386;16.940;2023-06-01T07:07:40;5.05;;;2.75;;
21890;SDS011;11110;52.386;16.940;2023-06-01T07:10:09;7.43;;;2.78;;
21890;SDS011;11110;52.386;16.940;2023-06-01T07:12:39;5.78;;;2.60;;
21890;SDS011;11110;52.386;16.940;2023-06-01T07:15:08;5.80;;;2.42;;
21890;SDS011;11110;52.386;16.940;2023-06-01T07:17:37;4.47;;;2.83;;
21890;SDS011;11110;52.386;16.940;2023-06-01T07:20:06;4.28;;;2.63;;
21890;SDS011;11110;52.386;16.940;2023-06-01T07:22:38;14.73;;;7.15;;
21890;SDS011;11110;52.386;16.940;2023-06-01T07:25:09;29.02;;;16.00;;
21890;SDS011;11110;52.386;16.940;2023-06-01T07:27:41;14.35;;;7.53;;
21890;SDS011;11110;52.386;16.940;2023-06-01T07:30:10;10.45;;;4.20;;
21890;SDS011;11110;52.386;16.940;2023-06-01T07:32:39;8.63;;;3.63;;
21890;SDS011;11110;52.386;16.940;2023-06-01T07:35:08;6.85;;;3.35;;
21890;SDS011;11110;52.386;16.940;2023-06-01T07:37:37;5.22;;;2.78;;
21890;SDS011;11110;52.386;16.940;2023-06-01T07:40:06;5.50;;;2.67;;
21890;SDS011;11110;52.386;16.940;2023-06-01T07:42:36;5.82;;;3.03;;
21890;SDS011;11110;52.386;16.940;2023-06-01T07:45:06;6.75;;;2.35;;
21890;SDS011;11110;52.386;16.940;2023-06-01T07:47:36;6.93;;;2.92;;
21890;SDS011;11110;52.386;16.940;2023-06-01T07:50:05;5.13;;;2.75;;
21890;SDS011;11110;52.386;16.940;2023-06-01T07:52:34;5.07;;;2.58;;
21890;SDS011;11110;52.386;16.940;2023-06-01T07:55:03;6.00;;;3.08;;
21890;SDS011;11110;52.386;16.940;2023-06-01T07:57:32;6.90;;;3.03;;
21890;SDS011;11110;52.386;16.940;2023-06-01T08:00:01;6.90;;;2.67;;
21890;SDS011;11110;52.386;16.940;2023-06-01T08:02:37;8.85;;;2.50;;
21890;SDS011;11110;52.386;16.940;2023-06-01T08:05:06;5.80;;;2.53;;
21890;SDS011;11110;52.386;16.940;2023-06-01T08:07:38;8.20;;;2.50;;
21890;SDS011;11110;52.386;16.940;2023-06-01T08:10:07;4.90;;;2.17;;
21890;SDS011;11110;52.386;16.940;2023-06-01T08:12:36;4.90;;;2.22;;
21890;SDS011;11110;52.386;16.940;2023-06-01T08:15:05;7.18;;;2.53;;
21890;SDS011;11110;52.386;16.940;2023-06-01T08:17:33;4.38;;;2.30;;
21890;SDS011;11110;52.386;16.940;2023-06-01T08:20:04;6.60;;;2.50;;
21890;SDS011;11110;52.386;16.940;2023-06-01T08:22:37;3.03;;;2.15;;
21890;SDS011;11110;52.386;16.940;2023-06-01T08:25:07;8.48;;;2.45;;
21890;SDS011;11110;52.386;16.940;2023-06-01T08:27:36;6.53;;;2.70;;
21890;SDS011;11110;52.386;16.940;2023-06-01T08:30:05;9.27;;;2.80;;
21890;SDS011;11110;52.386;16.940;2023-06-01T08:32:35;6.80;;;2.50;;
21890;SDS011;11110;52.386;16.940;2023-06-01T08:35:06;6.75;;;2.58;;
21890;SDS011;11110;52.386;16.940;2023-06-01T08:37:35;6.80;;;2.40;;
21890;SDS011;11110;52.386;16.940;2023-06-01T08:40:05;7.63;;;2.72;;
21890;SDS011;11110;52.386;16.940;2023-06-01T08:42:39;7.68;;;3.30;;
21890;SDS011;11110;52.386;16.940;2023-06-01T08:45:14;7.20;;;2.78;;
21890;SDS011;11110;52.386;16.940;2023-06-01T08:47:43;5.30;;;2.65;;
21890;SDS011;11110;52.386;16.940;2023-06-01T08:50:16;6.25;;;3.20;;
21890;SDS011;11110;52.386;16.940;2023-06-01T08:52:45;6.20;;;3.15;;
21890;SDS011;11110;52.386;16.940;2023-06-01T08:55:15;3.70;;;2.45;;
21890;SDS011;11110;52.386;16.940;2023-06-01T08:57:44;6.80;;;2.47;;
21890;SDS011;11110;52.386;16.940;2023-06-01T09:00:13;5.05;;;2.70;;
21890;SDS011;11110;52.386;16.940;2023-06-01T09:02:42;6.63;;;2.67;;
21890;SDS011;11110;52.386;16.940;2023-06-01T09:05:11;10.43;;;2.95;;
21890;SDS011;11110;52.386;16.940;2023-06-01T09:07:42;8.13;;;2.92;;
21890;SDS011;11110;52.386;16.940;2023-06-01T09:10:10;5.47;;;2.72;;
21890;SDS011;11110;52.386;16.940;2023-06-01T09:12:39;3.97;;;2.30;;
21890;SDS011;11110;52.386;16.940;2023-06-01T09:15:19;4.88;;;2.47;;
21890;SDS011;11110;52.386;16.940;2023-06-01T09:17:49;5.15;;;2.83;;
21890;SDS011;11110;52.386;16.940;2023-06-01T09:20:22;8.20;;;2.90;;
21890;SDS011;11110;52.386;16.940;2023-06-01T09:22:54;8.00;;;3.42;;
21890;SDS011;11110;52.386;16.940;2023-06-01T09:25:23;6.82;;;2.85;;
21890;SDS011;11110;52.386;16.940;2023-06-01T09:27:54;8.00;;;3.10;;
21890;SDS011;11110;52.386;16.940;2023-06-01T09:30:25;6.63;;;2.70;;
21890;SDS011;11110;52.386;16.940;2023-06-01T09:33:09;6.93;;;2.70;;
21890;SDS011;11110;52.386;16.940;2023-06-01T09:35:41;6.80;;;2.78;;
21890;SDS011;11110;52.386;16.940;2023-06-01T09:38:12;7.22;;;2.55;;
21890;SDS011;11110;52.386;16.940;2023-06-01T09:40:55;11.35;;;2.90;;
21890;SDS011;11110;52.386;16.940;2023-06-01T09:43:24;6.22;;;2.72;;
21890;SDS011;11110;52.386;16.940;2023-06-01T09:46:03;5.68;;;2.70;;
21890;SDS011;11110;52.386;16.940;2023-06-01T09:48:33;6.22;;;2.58;;
21890;SDS011;11110;52.386;16.940;2023-06-01T09:51:01;9.75;;;3.63;;
21890;SDS011;11110;52.386;16.940;2023-06-01T09:53:40;6.85;;;2.72;;
21890;SDS011;11110;52.386;16.940;2023-06-01T09:56:09;6.93;;;2.65;;
21890;SDS011;11110;52.386;16.940;2023-06-01T09:58:38;4.97;;;2.83;;
21890;SDS011;11110;52.386;16.940;2023-06-01T10:01:08;4.78;;;2.72;;
21890;SDS011;11110;52.386;16.940;2023-06-01T10:03:40;7.60;;;3.20;;
21890;SDS011;11110;52.386;16.940;2023-06-01T10:06:10;7.95;;;3.83;;
21890;SDS011;11110;52.386;16.940;2023-06-01T10:08:41;5.70;;;2.70;;
21890;SDS011;11110;52.386;16.940;2023-06-01T10:11:11;5.93;;;2.60;;
21890;SDS011;11110;52.386;16.940;2023-06-01T10:13:40;6.95;;;3.00;;
21890;SDS011;11110;52.386;16.940;2023-06-01T10:16:09;5.05;;;3.22;;
21890;SDS011;11110;52.386;16.940;2023-06-01T10:18:40;6.25;;;2.30;;
21890;SDS011;11110;52.386;16.940;2023-06-01T10:21:10;6.43;;;2.13;;
21890;SDS011;11110;52.386;16.940;2023-06-01T10:23:41;9.75;;;3.35;;
21890;SDS011;11110;52.386;16.940;2023-06-01T10:26:11;7.00;;;2.70;;
21890;SDS011;11110;52.386;16.940;2023-06-01T10:28:42;6.25;;;2.88;;
21890;SDS011;11110;52.386;16.940;2023-06-01T10:31:35;5.93;;;3.22;;
21890;SDS011;11110;52.386;16.940;2023-06-01T10:34:05;8.32;;;2.95;;
21890;SDS011;11110;52.386;16.940;2023-06-01T10:39:41;7.40;;;2.80;;
21890;SDS011;11110;52.386;16.940;2023-06-01T10:45:07;3.13;;;2.47;;
21890;SDS011;11110;52.386;16.940;2023-06-01T10:47:54;4.70;;;2.65;;
21890;SDS011;11110;52.386;16.940;2023-06-01T10:50:23;6.93;;;2.85;;
21890;SDS011;11110;52.386;16.940;2023-06-01T10:52:52;7.63;;;2.58;;
21890;SDS011;11110;52.386;16.940;2023-06-01T10:55:23;4.80;;;2.60;;
21890;SDS011;11110;52.386;16.940;2023-06-01T11:00:47;7.20;;;3.15;;
21890;SDS011;11110;52.386;16.940;2023-06-01T11:03:16;6.90;;;3.33;;
21890;SDS011;11110;52.386;16.940;2023-06-01T11:06:24;7.53;;;3.85;;
21890;SDS011;11110;52.386;16.940;2023-06-01T11:08:55;10.75;;;4.75;;
21890;SDS011;11110;52.386;16.940;2023-06-01T11:14:32;11.55;;;4.05;;
21890;SDS011;11110;52.386;16.940;2023-06-01T11:19:56;13.55;;;4.93;;
21890;SDS011;11110;52.386;16.940;2023-06-01T11:22:35;26.40;;;15.68;;
21890;SDS011;11110;52.386;16.940;2023-06-01T11:25:05;12.25;;;5.65;;
21890;SDS011;11110;52.386;16.940;2023-06-01T11:27:39;15.02;;;9.90;;
21890;SDS011;11110;52.386;16.940;2023-06-01T11:30:11;14.00;;;8.35;;
21890;SDS011;11110;52.386;16.940;2023-06-01T11:32:45;6.47;;;5.05;;
21890;SDS011;11110;52.386;16.940;2023-06-01T11:35:17;10.75;;;6.93;;
21890;SDS011;11110;52.386;16.940;2023-06-01T11:37:52;7.40;;;5.10;;
21890;SDS011;11110;52.386;16.940;2023-06-01T11:40:24;16.10;;;7.80;;
21890;SDS011;11110;52.386;16.940;2023-06-01T11:42:59;11.77;;;6.43;;
21890;SDS011;11110;52.386;16.940;2023-06-01T11:45:29;13.00;;;6.45;;
21890;SDS011;11110;52.386;16.940;2023-06-01T11:47:57;13.32;;;7.03;;
21890;SDS011;11110;52.386;16.940;2023-06-01T11:50:37;13.18;;;5.68;;
21890;SDS011;11110;52.386;16.940;2023-06-01T11:53:14;8.70;;;4.40;;
21890;SDS011;11110;52.386;16.940;2023-06-01T11:55:47;14.55;;;4.95;;
21890;SDS011;11110;52.386;16.940;2023-06-01T11:58:22;9.40;;;4.45;;
21890;SDS011;11110;52.386;16.940;2023-06-01T12:00:51;7.78;;;4.70;;
21890;SDS011;11110;52.386;16.940;2023-06-01T12:03:20;7.35;;;4.68;;
21890;SDS011;11110;52.386;16.940;2023-06-01T12:05:51;8.48;;;3.97;;
21890;SDS011;11110;52.386;16.940;2023-06-01T12:08:20;10.57;;;4.43;;
21890;SDS011;11110;52.386;16.940;2023-06-01T12:11:04;9.85;;;4.85;;
21890;SDS011;11110;52.386;16.940;2023-06-01T12:13:35;10.55;;;4.72;;
21890;SDS011;11110;52.386;16.940;2023-06-01T12:16:04;9.93;;;5.28;;
21890;SDS011;11110;52.386;16.940;2023-06-01T12:18:52;7.18;;;4.63;;
21890;SDS011;11110;52.386;16.940;2023-06-01T12:21:21;7.38;;;4.95;;
21890;SDS011;11110;52.386;16.940;2023-06-01T12:23:50;7.22;;;4.93;;
21890;SDS011;11110;52.386;16.940;2023-06-01T12:26:19;7.88;;;5.00;;
21890;SDS011;11110;52.386;16.940;2023-06-01T12:28:49;18.17;;;5.30;;
21890;SDS011;11110;52.386;16.940;2023-06-01T12:31:25;10.63;;;4.70;;
21890;SDS011;11110;52.386;16.940;2023-06-01T12:33:54;11.43;;;5.18;;
21890;SDS011;11110;52.386;16.940;2023-06-01T12:36:29;8.82;;;5.60;;
21890;SDS011;11110;52.386;16.940;2023-06-01T12:38:59;8.82;;;4.90;;
21890;SDS011;11110;52.386;16.940;2023-06-01T12:41:30;15.93;;;5.78;;
21890;SDS011;11110;52.386;16.940;2023-06-01T12:44:00;10.57;;;5.13;;
21890;SDS011;11110;52.386;16.940;2023-06-01T12:46:29;9.68;;;5.13;;
21890;SDS011;11110;52.386;16.940;2023-06-01T12:49:10;6.22;;;4.85;;
21890;SDS011;11110;52.386;16.940;2023-06-01T12:51:40;6.68;;;5.10;;
21890;SDS011;11110;52.386;16.940;2023-06-01T12:54:08;6.10;;;4.90;;
21890;SDS011;11110;52.386;16.940;2023-06-01T12:56:37;10.15;;;5.38;;
21890;SDS011;11110;52.386;16.940;2023-06-01T12:59:07;10.32;;;4.80;;
21890;SDS011;11110;52.386;16.940;2023-06-01T13:01:35;9.57;;;4.57;;
21890;SDS011;11110;52.386;16.940;2023-06-01T13:04:05;8.93;;;4.95;;
21890;SDS011;11110;52.386;16.940;2023-06-01T13:06:34;8.05;;;5.85;;
21890;SDS011;11110;52.386;16.940;2023-06-01T13:09:05;10.82;;;5.15;;
21890;SDS011;11110;52.386;16.940;2023-06-01T13:11:34;11.73;;;5.72;;
21890;SDS011;11110;52.386;16.940;2023-06-01T13:14:03;10.27;;;4.57;;
21890;SDS011;11110;52.386;16.940;2023-06-01T13:16:33;10.20;;;5.25;;
21890;SDS011;11110;52.386;16.940;2023-06-01T13:19:01;10.55;;;5.07;;
21890;SDS011;11110;52.386;16.940;2023-06-01T13:21:31;7.55;;;4.80;;
21890;SDS011;11110;52.386;16.940;2023-06-01T13:24:00;13.90;;;5.15;;
21890;SDS011;11110;52.386;16.940;2023-06-01T13:26:30;6.53;;;4.93;;
21890;SDS011;11110;52.386;16.940;2023-06-01T13:28:59;8.90;;;4.82;;
21890;SDS011;11110;52.386;16.940;2023-06-01T13:31:27;8.20;;;5.22;;
21890;SDS011;11110;52.386;16.940;2023-06-01T13:34:00;9.93;;;5.35;;
21890;SDS011;11110;52.386;16.940;2023-06-01T13:36:29;11.05;;;5.40;;
21890;SDS011;11110;52.386;16.940;2023-06-01T13:38:57;9.75;;;4.90;;
21890;SDS011;11110;52.386;16.940;2023-06-01T13:41:28;8.10;;;5.05;;
21890;SDS011;11110;52.386;16.940;2023-06-01T13:43:56;11.10;;;5.60;;
21890;SDS011;11110;52.386;16.940;2023-06-01T13:46:25;7.47;;;5.10;;
21890;SDS011;11110;52.386;16.940;2023-06-01T13:48:54;8.50;;;5.68;;
21890;SDS011;11110;52.386;16.940;2023-06-01T13:51:24;8.88;;;5.70;;
21890;SDS011;11110;52.386;16.940;2023-06-01T13:53:52;10.65;;;5.65;;
21890;SDS011;11110;52.386;16.940;2023-06-01T13:56:21;10.07;;;5.97;;
21890;SDS011;11110;52.386;16.940;2023-06-01T13:58:49;8.85;;;6.20;;
21890;SDS011;11110;52.386;16.940;2023-06-01T14:01:18;8.52;;;6.68;;
21890;SDS011;11110;52.386;16.940;2023-06-01T14:03:49;10.05;;;6.10;;
21890;SDS011;11110;52.386;16.940;2023-06-01T14:06:18;10.35;;;7.15;;
21890;SDS011;11110;52.386;16.940;2023-06-01T14:08:48;13.57;;;7.32;;
21890;SDS011;11110;52.386;16.940;2023-06-01T14:11:17;13.88;;;7.20;;
21890;SDS011;11110;52.386;16.940;2023-06-01T14:13:45;11.82;;;6.57;;
21890;SDS011;11110;52.386;16.940;2023-06-01T14:16:14;12.32;;;7.35;;
21890;SDS011;11110;52.386;16.940;2023-06-01T14:18:42;10.93;;;7.63;;
21890;SDS011;11110;52.386;16.940;2023-06-01T14:21:11;12.68;;;7.93;;
21890;SDS011;11110;52.386;16.940;2023-06-01T14:23:40;11.32;;;7.43;;
21890;SDS011;11110;52.386;16.940;2023-06-01T14:26:12;12.95;;;7.10;;
21890;SDS011;11110;52.386;16.940;2023-06-01T14:28:41;10.55;;;6.18;;
21890;SDS011;11110;52.386;16.940;2023-06-01T14:31:10;13.20;;;6.85;;
21890;SDS011;11110;52.386;16.940;2023-06-01T14:33:38;7.35;;;5.88;;
21890;SDS011;11110;52.386;16.940;2023-06-01T14:36:07;12.10;;;7.30;;
21890;SDS011;11110;52.386;16.940;2023-06-01T14:38:36;14.20;;;6.95;;
21890;SDS011;11110;52.386;16.940;2023-06-01T14:41:04;9.63;;;6.50;;
21890;SDS011;11110;52.386;16.940;2023-06-01T14:43:34;9.57;;;6.55;;
21890;SDS011;11110;52.386;16.940;2023-06-01T14:46:03;9.52;;;6.00;;
21890;SDS011;11110;52.386;16.940;2023-06-01T14:48:31;8.18;;;5.65;;
21890;SDS011;11110;52.386;16.940;2023-06-01T14:51:00;9.50;;;5.82;;
21890;SDS011;11110;52.386;16.940;2023-06-01T14:53:29;9.10;;;6.50;;
21890;SDS011;11110;52.386;16.940;2023-06-01T14:55:57;9.30;;;6.00;;
21890;SDS011;11110;52.386;16.940;2023-06-01T14:58:26;6.55;;;5.10;;
21890;SDS011;11110;52.386;16.940;2023-06-01T15:00:56;9.93;;;6.05;;
21890;SDS011;11110;52.386;16.940;2023-06-01T15:03:25;8.07;;;5.22;;
21890;SDS011;11110;52.386;16.940;2023-06-01T15:05:53;8.05;;;5.25;;